sensor_id;sensor_type;location;lat;lon;timestamp;pressure;altitude;pressure_sealevel;temperature;humidity
55068;BME280;40965;52.368;9.712;2022-07-29T00:00:40;101195.34;;;16.86;47.52
55068;BME280;40965;52.368;9.712;2022-07-29T00:03:10;101190.06;;;16.86;47.43
55068;BME280;40965;52.368;9.712;2022-07-29T00:05:39;101193.47;;;16.92;47.39
55068;BME280;40965;52.368;9.712;2022-07-29T00:08:09;101182.94;;;16.90;47.57
55068;BME280;40965;52.368;9.712;2022-07-29T00:10:36;101177.69;;;16.89;47.41
55068;BME280;40965;52.368;9.712;2022-07-29T00:13:05;101174.13;;;16.90;47.49
55068;BME280;40965;52.368;9.712;2022-07-29T00:15:31;101175.00;;;16.90;47.56
55068;BME280;40965;52.368;9.712;2022-07-29T00:17:58;101170.59;;;16.91;47.53
55068;BME280;40965;52.368;9.712;2022-07-29T00:20:25;101169.72;;;16.90;47.69
55068;BME280;40965;52.368;9.712;2022-07-29T00:22:52;101172.38;;;16.90;47.58
55068;BME280;40965;52.368;9.712;2022-07-29T00:25:18;101169.75;;;16.89;47.66
55068;BME280;40965;52.368;9.712;2022-07-29T00:27:45;101167.16;;;16.87;47.83
55068;BME280;40965;52.368;9.712;2022-07-29T00:30:12;101164.56;;;16.84;47.83
55068;BME280;40965;52.368;9.712;2022-07-29T00:32:39;101154.97;;;16.80;48.28
55068;BME280;40965;52.368;9.712;2022-07-29T00:35:06;101164.72;;;16.79;48.37
55068;BME280;40965;52.368;9.712;2022-07-29T00:37:47;101161.13;;;16.80;48.31
55068;BME280;40965;52.368;9.712;2022-07-29T00:40:13;101155.88;;;16.79;48.33
55068;BME280;40965;52.368;9.712;2022-07-29T00:42:48;101155.13;;;16.75;48.38
55068;BME280;40965;52.368;9.712;2022-07-29T00:45:16;101154.28;;;16.73;48.41
55068;BME280;40965;52.368;9.712;2022-07-29T00:47:43;101148.16;;;16.73;48.55
55068;BME280;40965;52.368;9.712;2022-07-29T00:50:12;101149.03;;;16.72;48.54
55068;BME280;40965;52.368;9.712;2022-07-29T00:52:41;101144.63;;;16.72;48.95
55068;BME280;40965;52.368;9.712;2022-07-29T00:55:12;101138.50;;;16.70;48.72
55068;BME280;40965;52.368;9.712;2022-07-29T00:57:42;101144.72;;;16.69;48.83
55068;BME280;40965;52.368;9.712;2022-07-29T01:00:17;101138.63;;;16.65;48.71
55068;BME280;40965;52.368;9.712;2022-07-29T01:02:46;101142.13;;;16.66;48.99
55068;BME280;40965;52.368;9.712;2022-07-29T01:05:16;101144.84;;;16.63;49.09
55068;BME280;40965;52.368;9.712;2022-07-29T01:07:49;101131.78;;;16.57;49.11
55068;BME280;40965;52.368;9.712;2022-07-29T01:10:18;101126.50;;;16.57;49.52
55068;BME280;40965;52.368;9.712;2022-07-29T01:12:48;101131.88;;;16.53;49.01
55068;BME280;40965;52.368;9.712;2022-07-29T01:15:16;101132.78;;;16.52;49.40
55068;BME280;40965;52.368;9.712;2022-07-29T01:23:08;101125.22;;;16.38;49.75
55068;BME280;40965;52.368;9.712;2022-07-29T01:26:17;101120.09;;;16.32;50.20
55068;BME280;40965;52.368;9.712;2022-07-29T01:29:02;101114.13;;;16.24;50.59
55068;BME280;40965;52.368;9.712;2022-07-29T01:37:55;101108.47;;;16.05;51.16
55068;BME280;40965;52.368;9.712;2022-07-29T01:40:49;101107.75;;;15.98;51.22
55068;BME280;40965;52.368;9.712;2022-07-29T01:43:27;101100.91;;;15.90;51.60
55068;BME280;40965;52.368;9.712;2022-07-29T01:46:07;101107.22;;;15.84;51.55
55068;BME280;40965;52.368;9.712;2022-07-29T01:48:45;101095.00;;;15.77;51.91
55068;BME280;40965;52.368;9.712;2022-07-29T01:51:41;101100.38;;;15.72;52.29
55068;BME280;40965;52.368;9.712;2022-07-29T01:54:29;101104.94;;;15.65;52.09
55068;BME280;40965;52.368;9.712;2022-07-29T01:57:13;101106.00;;;15.58;52.26
55068;BME280;40965;52.368;9.712;2022-07-29T01:59:43;101100.81;;;15.53;52.68
55068;BME280;40965;52.368;9.712;2022-07-29T02:02:13;101102.63;;;15.50;52.66
55068;BME280;40965;52.368;9.712;2022-07-29T02:04:43;101099.22;;;15.46;52.87
55068;BME280;40965;52.368;9.712;2022-07-29T02:07:17;101100.16;;;15.44;53.06
55068;BME280;40965;52.368;9.712;2022-07-29T02:09:45;101094.88;;;15.42;53.41
55068;BME280;40965;52.368;9.712;2022-07-29T02:12:18;101095.81;;;15.41;53.41
55068;BME280;40965;52.368;9.712;2022-07-29T02:14:50;101091.47;;;15.38;53.24
55068;BME280;40965;52.368;9.712;2022-07-29T02:17:26;101084.47;;;15.37;53.50
55068;BME280;40965;52.368;9.712;2022-07-29T02:19:57;101081.00;;;15.34;53.32
55068;BME280;40965;52.368;9.712;2022-07-29T02:22:28;101078.47;;;15.31;53.42
55068;BME280;40965;52.368;9.712;2022-07-29T02:25:01;101081.13;;;15.28;53.40
55068;BME280;40965;52.368;9.712;2022-07-29T02:27:28;101087.38;;;15.24;53.82
55068;BME280;40965;52.368;9.712;2022-07-29T02:29:58;101083.09;;;15.19;54.20
55068;BME280;40965;52.368;9.712;2022-07-29T02:32:27;101081.31;;;15.20;53.89
55068;BME280;40965;52.368;9.712;2022-07-29T02:34:56;101076.06;;;15.18;54.04
55068;BME280;40965;52.368;9.712;2022-07-29T02:37:25;101076.97;;;15.17;54.23
55068;BME280;40965;52.368;9.712;2022-07-29T02:39:53;101073.44;;;15.18;54.31
55068;BME280;40965;52.368;9.712;2022-07-29T02:42:26;101078.66;;;15.21;54.26
55068;BME280;40965;52.368;9.712;2022-07-29T02:44:53;101073.31;;;15.25;54.24
55068;BME280;40965;52.368;9.712;2022-07-29T02:47:40;101074.16;;;15.25;54.35
55068;BME280;40965;52.368;9.712;2022-07-29T02:52:54;101071.44;;;15.30;53.89
55068;BME280;40965;52.368;9.712;2022-07-29T02:55:36;101074.94;;;15.32;54.16
55068;BME280;40965;52.368;9.712;2022-07-29T02:58:21;101067.91;;;15.31;54.06
55068;BME280;40965;52.368;9.712;2022-07-29T03:00:55;101064.38;;;15.30;54.13
55068;BME280;40965;52.368;9.712;2022-07-29T03:03:34;101060.84;;;15.31;54.38
55068;BME280;40965;52.368;9.712;2022-07-29T03:06:03;101060.00;;;15.31;54.18
55068;BME280;40965;52.368;9.712;2022-07-29T03:08:31;101059.09;;;15.32;54.24
55068;BME280;40965;52.368;9.712;2022-07-29T03:10:59;101058.16;;;15.34;54.12
55068;BME280;40965;52.368;9.712;2022-07-29T03:13:30;101055.53;;;15.33;54.49
55068;BME280;40965;52.368;9.712;2022-07-29T03:15:58;101054.69;;;15.32;54.21
55068;BME280;40965;52.368;9.712;2022-07-29T03:18:41;101064.34;;;15.33;54.44
55068;BME280;40965;52.368;9.712;2022-07-29T03:21:07;101058.16;;;15.33;54.11
55068;BME280;40965;52.368;9.712;2022-07-29T03:23:35;101064.38;;;15.32;54.45
55068;BME280;40965;52.368;9.712;2022-07-29T03:26:01;101052.13;;;15.29;54.40
55068;BME280;40965;52.368;9.712;2022-07-29T03:28:32;101052.13;;;15.28;54.37
55068;BME280;40965;52.368;9.712;2022-07-29T03:30:58;101053.06;;;15.27;54.38
55068;BME280;40965;52.368;9.712;2022-07-29T03:33:25;101057.41;;;15.28;54.47
55068;BME280;40965;52.368;9.712;2022-07-29T03:35:54;101054.75;;;15.29;54.49
55068;BME280;40965;52.368;9.712;2022-07-29T03:38:23;101059.09;;;15.30;54.47
55068;BME280;40965;52.368;9.712;2022-07-29T03:41:00;101052.13;;;15.29;54.75
55068;BME280;40965;52.368;9.712;2022-07-29T03:43:30;101057.41;;;15.29;54.73
55068;BME280;40965;52.368;9.712;2022-07-29T03:45:59;101051.22;;;15.29;54.78
55068;BME280;40965;52.368;9.712;2022-07-29T03:48:28;101057.47;;;15.25;54.68
55068;BME280;40965;52.368;9.712;2022-07-29T03:51:01;101050.53;;;15.20;55.17
55068;BME280;40965;52.368;9.712;2022-07-29T03:53:28;101051.44;;;15.19;55.21
55068;BME280;40965;52.368;9.712;2022-07-29T03:55:58;101055.88;;;15.17;55.14
55068;BME280;40965;52.368;9.712;2022-07-29T03:58:27;101062.03;;;15.18;55.17
55068;BME280;40965;52.368;9.712;2022-07-29T04:00:58;101055.00;;;15.17;55.31
55068;BME280;40965;52.368;9.712;2022-07-29T04:03:24;101062.88;;;15.18;55.35
55068;BME280;40965;52.368;9.712;2022-07-29T04:06:05;101064.63;;;15.19;55.69
55068;BME280;40965;52.368;9.712;2022-07-29T04:08:33;101056.72;;;15.19;55.73
55068;BME280;40965;52.368;9.712;2022-07-29T04:11:01;101062.84;;;15.21;55.85
55068;BME280;40965;52.368;9.712;2022-07-29T04:13:28;101060.19;;;15.20;55.57
55068;BME280;40965;52.368;9.712;2022-07-29T04:15:57;101056.75;;;15.18;55.92
55068;BME280;40965;52.368;9.712;2022-07-29T04:18:24;101062.09;;;15.15;55.98
55068;BME280;40965;52.368;9.712;2022-07-29T04:20:51;101063.84;;;15.14;55.93
55068;BME280;40965;52.368;9.712;2022-07-29T04:23:18;101064.75;;;15.13;56.33
55068;BME280;40965;52.368;9.712;2022-07-29T04:25:44;101070.03;;;15.13;56.42
55068;BME280;40965;52.368;9.712;2022-07-29T04:28:11;101061.28;;;15.11;56.45
55068;BME280;40965;52.368;9.712;2022-07-29T04:30:38;101063.94;;;15.11;56.53
55068;BME280;40965;52.368;9.712;2022-07-29T04:33:08;101061.34;;;15.10;56.43
55068;BME280;40965;52.368;9.712;2022-07-29T04:35:38;101070.94;;;15.11;56.82
55068;BME280;40965;52.368;9.712;2022-07-29T04:38:11;101070.09;;;15.10;56.71
55068;BME280;40965;52.368;9.712;2022-07-29T04:40:41;101072.69;;;15.12;56.57
55068;BME280;40965;52.368;9.712;2022-07-29T04:43:12;101077.13;;;15.11;56.72
55068;BME280;40965;52.368;9.712;2022-07-29T04:45:41;101075.38;;;15.10;57.16
55068;BME280;40965;52.368;9.712;2022-07-29T04:48:08;101079.75;;;15.11;56.92
55068;BME280;40965;52.368;9.712;2022-07-29T04:50:38;101074.47;;;15.11;56.89
55068;BME280;40965;52.368;9.712;2022-07-29T04:53:08;101074.47;;;15.11;57.04
55068;BME280;40965;52.368;9.712;2022-07-29T04:55:39;101070.94;;;15.12;56.96
55068;BME280;40965;52.368;9.712;2022-07-29T04:58:06;101068.22;;;15.15;57.00
55068;BME280;40965;52.368;9.712;2022-07-29T05:00:33;101065.59;;;15.15;57.15
55068;BME280;40965;52.368;9.712;2022-07-29T05:03:03;101065.47;;;15.21;57.09
55068;BME280;40965;52.368;9.712;2022-07-29T05:05:30;101063.63;;;15.25;57.03
55068;BME280;40965;52.368;9.712;2022-07-29T05:07:57;101067.88;;;15.32;57.02
55068;BME280;40965;52.368;9.712;2022-07-29T05:10:24;101065.16;;;15.35;56.96
55068;BME280;40965;52.368;9.712;2022-07-29T05:12:52;101069.50;;;15.38;56.79
55068;BME280;40965;52.368;9.712;2022-07-29T05:15:18;101072.06;;;15.41;56.84
55068;BME280;40965;52.368;9.712;2022-07-29T05:17:45;101074.56;;;15.47;56.84
55068;BME280;40965;52.368;9.712;2022-07-29T05:20:12;101075.19;;;15.59;56.46
55068;BME280;40965;52.368;9.712;2022-07-29T05:22:40;101078.50;;;15.67;56.08
55068;BME280;40965;52.368;9.712;2022-07-29T05:25:07;101086.38;;;15.70;56.07
55068;BME280;40965;52.368;9.712;2022-07-29T05:27:35;101076.50;;;15.78;55.97
55068;BME280;40965;52.368;9.712;2022-07-29T05:30:03;101070.22;;;15.85;55.63
55068;BME280;40965;52.368;9.712;2022-07-29T05:32:36;101064.84;;;15.88;55.73
55068;BME280;40965;52.368;9.712;2022-07-29T05:35:03;101059.47;;;15.93;55.74
55068;BME280;40965;52.368;9.712;2022-07-29T05:37:30;101062.88;;;15.97;55.60
55068;BME280;40965;52.368;9.712;2022-07-29T05:40:04;101060.97;;;16.02;55.55
55068;BME280;40965;52.368;9.712;2022-07-29T05:42:31;101062.53;;;16.11;55.46
55068;BME280;40965;52.368;9.712;2022-07-29T05:45:02;101067.72;;;16.15;55.23
55068;BME280;40965;52.368;9.712;2022-07-29T05:47:30;101070.25;;;16.18;55.09
55068;BME280;40965;52.368;9.712;2022-07-29T05:49:57;101069.41;;;16.18;55.16
55068;BME280;40965;52.368;9.712;2022-07-29T05:52:24;101063.31;;;16.14;55.24
55068;BME280;40965;52.368;9.712;2022-07-29T05:54:51;101074.88;;;16.09;55.56
55068;BME280;40965;52.368;9.712;2022-07-29T05:57:23;101068.00;;;16.03;55.80
55068;BME280;40965;52.368;9.712;2022-07-29T05:59:51;101065.34;;;16.03;55.83
55068;BME280;40965;52.368;9.712;2022-07-29T06:02:18;101070.69;;;16.01;55.87
55068;BME280;40965;52.368;9.712;2022-07-29T06:04:59;101067.19;;;16.01;56.09
55068;BME280;40965;52.368;9.712;2022-07-29T06:07:26;101057.38;;;16.06;55.99
55068;BME280;40965;52.368;9.712;2022-07-29T06:09:53;101064.19;;;16.15;55.92
55068;BME280;40965;52.368;9.712;2022-07-29T06:12:22;101057.84;;;16.22;55.62
55068;BME280;40965;52.368;9.712;2022-07-29T06:14:48;101061.97;;;16.32;55.38
55068;BME280;40965;52.368;9.712;2022-07-29T06:17:16;101067.72;;;16.48;55.09
55068;BME280;40965;52.368;9.712;2022-07-29T06:19:43;101058.47;;;16.65;54.62
55068;BME280;40965;52.368;9.712;2022-07-29T06:22:09;101054.50;;;16.80;54.42
55068;BME280;40965;52.368;9.712;2022-07-29T06:24:39;101051.38;;;16.98;54.05
55068;BME280;40965;52.368;9.712;2022-07-29T06:27:09;101040.25;;;17.17;53.38
55068;BME280;40965;52.368;9.712;2022-07-29T06:29:37;101044.81;;;17.40;52.99
55068;BME280;40965;52.368;9.712;2022-07-29T06:32:08;101038.19;;;17.55;52.69
55068;BME280;40965;52.368;9.712;2022-07-29T06:34:39;101052.81;;;17.67;52.46
55068;BME280;40965;52.368;9.712;2022-07-29T06:37:07;101047.34;;;17.72;52.03
55068;BME280;40965;52.368;9.712;2022-07-29T06:39:38;101052.38;;;17.81;52.15
55068;BME280;40965;52.368;9.712;2022-07-29T06:42:06;101046.63;;;17.95;51.69
55068;BME280;40965;52.368;9.712;2022-07-29T06:44:33;101044.81;;;17.97;51.35
55068;BME280;40965;52.368;9.712;2022-07-29T06:47:00;101051.59;;;18.06;51.45
55068;BME280;40965;52.368;9.712;2022-07-29T06:49:28;101041.53;;;18.15;51.27
55068;BME280;40965;52.368;9.712;2022-07-29T06:51:59;101039.53;;;18.22;51.17
55068;BME280;40965;52.368;9.712;2022-07-29T06:54:45;101041.00;;;18.31;50.95
55068;BME280;40965;52.368;9.712;2022-07-29T06:57:13;101035.63;;;18.32;50.43
55068;BME280;40965;52.368;9.712;2022-07-29T06:59:40;101034.41;;;18.43;50.30
55068;BME280;40965;52.368;9.712;2022-07-29T07:02:06;101037.53;;;18.54;50.17
55068;BME280;40965;52.368;9.712;2022-07-29T07:04:33;101049.34;;;18.69;49.68
55068;BME280;40965;52.368;9.712;2022-07-29T07:07:00;101048.38;;;18.72;49.60
55068;BME280;40965;52.368;9.712;2022-07-29T07:09:27;101048.84;;;18.83;49.43
55068;BME280;40965;52.368;9.712;2022-07-29T07:12:04;101054.41;;;19.00;49.13
55068;BME280;40965;52.368;9.712;2022-07-29T07:14:38;101050.19;;;19.18;48.70
55068;BME280;40965;52.368;9.712;2022-07-29T07:17:06;101052.09;;;19.39;48.50
55068;BME280;40965;52.368;9.712;2022-07-29T07:19:33;101061.59;;;19.66;47.79
55068;BME280;40965;52.368;9.712;2022-07-29T07:21:59;101056.34;;;19.65;47.43
55068;BME280;40965;52.368;9.712;2022-07-29T07:24:26;101048.41;;;19.87;47.09
55068;BME280;40965;52.368;9.712;2022-07-29T07:26:55;101048.28;;;20.11;46.27
55068;BME280;40965;52.368;9.712;2022-07-29T07:29:25;101043.31;;;20.24;46.39
55068;BME280;40965;52.368;9.712;2022-07-29T07:31:51;101043.75;;;20.33;45.74
55068;BME280;40965;52.368;9.712;2022-07-29T07:34:18;101041.25;;;20.30;45.76
55068;BME280;40965;52.368;9.712;2022-07-29T07:36:44;101039.44;;;20.31;45.43
55068;BME280;40965;52.368;9.712;2022-07-29T07:39:11;101041.50;;;20.24;45.92
55068;BME280;40965;52.368;9.712;2022-07-29T07:41:38;101041.72;;;20.20;45.99
55068;BME280;40965;52.368;9.712;2022-07-29T07:44:07;101041.78;;;20.18;46.03
55068;BME280;40965;52.368;9.712;2022-07-29T07:46:41;101044.09;;;20.05;46.12
55068;BME280;40965;52.368;9.712;2022-07-29T07:49:07;101048.56;;;19.82;46.28
55068;BME280;40965;52.368;9.712;2022-07-29T07:51:34;101050.91;;;19.68;46.81
55068;BME280;40965;52.368;9.712;2022-07-29T07:54:01;101050.44;;;19.58;47.04
55068;BME280;40965;52.368;9.712;2022-07-29T07:56:27;101061.06;;;19.58;47.01
55068;BME280;40965;52.368;9.712;2022-07-29T07:58:54;101055.59;;;19.61;46.97
55068;BME280;40965;52.368;9.712;2022-07-29T08:01:21;101050.22;;;19.63;47.10
55068;BME280;40965;52.368;9.712;2022-07-29T08:03:50;101051.09;;;19.63;46.96
55068;BME280;40965;52.368;9.712;2022-07-29T08:06:17;101055.00;;;19.55;47.37
55068;BME280;40965;52.368;9.712;2022-07-29T08:08:44;101054.44;;;19.46;47.35
55068;BME280;40965;52.368;9.712;2022-07-29T08:11:13;101049.16;;;19.45;47.45
55068;BME280;40965;52.368;9.712;2022-07-29T08:13:40;101048.25;;;19.46;47.25
55068;BME280;40965;52.368;9.712;2022-07-29T08:16:09;101052.44;;;19.51;47.41
55068;BME280;40965;52.368;9.712;2022-07-29T08:18:41;101047.19;;;19.50;47.40
55068;BME280;40965;52.368;9.712;2022-07-29T08:21:09;101043.00;;;19.44;47.64
55068;BME280;40965;52.368;9.712;2022-07-29T08:23:39;101039.53;;;19.42;47.73
55068;BME280;40965;52.368;9.712;2022-07-29T08:26:11;101044.00;;;19.42;47.50
55068;BME280;40965;52.368;9.712;2022-07-29T08:28:41;101049.91;;;19.48;47.69
55068;BME280;40965;52.368;9.712;2022-07-29T08:31:14;101048.00;;;19.52;47.44
55068;BME280;40965;52.368;9.712;2022-07-29T08:33:41;101052.41;;;19.53;47.45
55068;BME280;40965;52.368;9.712;2022-07-29T08:36:09;101050.72;;;19.50;47.43
55068;BME280;40965;52.368;9.712;2022-07-29T08:38:35;101048.09;;;19.50;47.23
55068;BME280;40965;52.368;9.712;2022-07-29T08:41:02;101043.63;;;19.51;47.21
55068;BME280;40965;52.368;9.712;2022-07-29T08:43:29;101045.13;;;19.58;47.29
55068;BME280;40965;52.368;9.712;2022-07-29T08:45:56;101036.88;;;19.64;46.98
55068;BME280;40965;52.368;9.712;2022-07-29T08:48:23;101055.16;;;19.72;47.16
55068;BME280;40965;52.368;9.712;2022-07-29T08:50:56;101054.09;;;19.76;47.12
55068;BME280;40965;52.368;9.712;2022-07-29T08:53:31;101054.47;;;19.91;47.03
55068;BME280;40965;52.368;9.712;2022-07-29T08:55:59;101056.25;;;20.11;46.61
55068;BME280;40965;52.368;9.712;2022-07-29T08:58:31;101058.13;;;20.29;46.25
55068;BME280;40965;52.368;9.712;2022-07-29T09:01:01;101052.34;;;20.40;46.02
55068;BME280;40965;52.368;9.712;2022-07-29T09:03:32;101059.53;;;20.38;45.45
55068;BME280;40965;52.368;9.712;2022-07-29T09:06:01;101054.94;;;20.42;45.59
55068;BME280;40965;52.368;9.712;2022-07-29T09:08:28;101051.28;;;20.44;45.54
55068;BME280;40965;52.368;9.712;2022-07-29T09:10:57;101056.47;;;20.47;45.93
55068;BME280;40965;52.368;9.712;2022-07-29T09:13:26;101046.34;;;20.56;45.74
55068;BME280;40965;52.368;9.712;2022-07-29T09:15:53;101038.09;;;20.62;45.52
55068;BME280;40965;52.368;9.712;2022-07-29T09:18:42;101033.97;;;20.75;45.14
55068;BME280;40965;52.368;9.712;2022-07-29T09:21:13;101034.50;;;20.84;45.32
55068;BME280;40965;52.368;9.712;2022-07-29T09:24:10;101035.06;;;21.28;44.65
55068;BME280;40965;52.368;9.712;2022-07-29T09:26:45;101025.84;;;21.55;43.92
55068;BME280;40965;52.368;9.712;2022-07-29T09:29:14;101028.75;;;21.68;43.57
55068;BME280;40965;52.368;9.712;2022-07-29T09:31:47;101025.25;;;21.67;43.46
55068;BME280;40965;52.368;9.712;2022-07-29T09:34:21;101021.16;;;21.60;43.55
55068;BME280;40965;52.368;9.712;2022-07-29T09:36:56;101029.63;;;21.49;43.84
55068;BME280;40965;52.368;9.712;2022-07-29T09:39:35;101019.06;;;21.47;44.04
55068;BME280;40965;52.368;9.712;2022-07-29T09:42:08;101015.91;;;21.58;44.03
55068;BME280;40965;52.368;9.712;2022-07-29T09:44:44;101013.41;;;21.73;43.75
55068;BME280;40965;52.368;9.712;2022-07-29T09:47:11;101021.94;;;21.79;43.89
55068;BME280;40965;52.368;9.712;2022-07-29T09:49:58;101015.31;;;21.71;43.55
55068;BME280;40965;52.368;9.712;2022-07-29T09:52:29;101014.88;;;21.61;43.57
55068;BME280;40965;52.368;9.712;2022-07-29T09:55:07;101015.97;;;21.57;44.00
55068;BME280;40965;52.368;9.712;2022-07-29T09:57:35;101018.66;;;21.74;43.72
55068;BME280;40965;52.368;9.712;2022-07-29T10:00:05;101012.09;;;21.99;43.34
55068;BME280;40965;52.368;9.712;2022-07-29T10:02:36;101011.91;;;22.20;42.84
55068;BME280;40965;52.368;9.712;2022-07-29T10:05:15;101014.81;;;22.33;42.42
55068;BME280;40965;52.368;9.712;2022-07-29T10:07:51;101019.69;;;22.42;42.31
55068;BME280;40965;52.368;9.712;2022-07-29T10:13:04;101023.69;;;23.00;41.48
55068;BME280;40965;52.368;9.712;2022-07-29T10:15:37;101020.53;;;23.41;40.53
55068;BME280;40965;52.368;9.712;2022-07-29T10:18:12;101028.25;;;23.62;39.95
55068;BME280;40965;52.368;9.712;2022-07-29T10:20:42;101027.88;;;23.68;40.06
55068;BME280;40965;52.368;9.712;2022-07-29T10:23:09;101026.16;;;23.67;39.88
55068;BME280;40965;52.368;9.712;2022-07-29T10:25:36;101018.00;;;23.70;39.65
55068;BME280;40965;52.368;9.712;2022-07-29T10:28:05;101020.72;;;23.69;40.13
55068;BME280;40965;52.368;9.712;2022-07-29T10:30:32;101016.44;;;23.50;40.08
55068;BME280;40965;52.368;9.712;2022-07-29T10:33:31;101008.19;;;23.23;40.94
55068;BME280;40965;52.368;9.712;2022-07-29T10:36:32;101004.66;;;23.06;41.11
55068;BME280;40965;52.368;9.712;2022-07-29T10:39:25;101010.47;;;23.15;40.76
55068;BME280;40965;52.368;9.712;2022-07-29T10:42:14;101010.66;;;23.10;41.29
55068;BME280;40965;52.368;9.712;2022-07-29T10:44:50;101001.31;;;23.19;41.27
55068;BME280;40965;52.368;9.712;2022-07-29T10:47:26;101005.72;;;23.20;41.23
55068;BME280;40965;52.368;9.712;2022-07-29T10:49:56;101010.88;;;23.23;41.41
55068;BME280;40965;52.368;9.712;2022-07-29T10:52:24;101001.91;;;23.24;41.42
55068;BME280;40965;52.368;9.712;2022-07-29T10:54:53;101000.78;;;23.28;41.34
55068;BME280;40965;52.368;9.712;2022-07-29T10:57:29;101002.72;;;23.26;41.59
55068;BME280;40965;52.368;9.712;2022-07-29T11:05:03;100993.69;;;23.11;41.57
55068;BME280;40965;52.368;9.712;2022-07-29T11:07:33;101002.56;;;22.95;42.32
55068;BME280;40965;52.368;9.712;2022-07-29T11:15:12;100993.94;;;22.41;43.29
55068;BME280;40965;52.368;9.712;2022-07-29T11:20:51;100999.78;;;22.14;44.11
55068;BME280;40965;52.368;9.712;2022-07-29T11:23:30;100997.44;;;22.08;44.39
55068;BME280;40965;52.368;9.712;2022-07-29T11:31:31;100999.47;;;22.20;44.70
55068;BME280;40965;52.368;9.712;2022-07-29T11:39:44;100998.66;;;22.53;43.89
55068;BME280;40965;52.368;9.712;2022-07-29T11:45:02;100989.94;;;22.50;43.82
55068;BME280;40965;52.368;9.712;2022-07-29T11:47:39;100998.22;;;22.61;44.37
55068;BME280;40965;52.368;9.712;2022-07-29T11:50:10;100992.41;;;22.70;43.99
55068;BME280;40965;52.368;9.712;2022-07-29T11:52:40;100989.22;;;22.79;44.01
55068;BME280;40965;52.368;9.712;2022-07-29T11:55:19;100987.59;;;22.93;43.92
55068;BME280;40965;52.368;9.712;2022-07-29T11:58:01;100991.03;;;22.95;43.71
55068;BME280;40965;52.368;9.712;2022-07-29T12:00:31;100983.72;;;22.99;43.62
55068;BME280;40965;52.368;9.712;2022-07-29T12:03:03;100985.00;;;23.07;43.65
55068;BME280;40965;52.368;9.712;2022-07-29T12:05:42;100984.84;;;23.10;43.13
55068;BME280;40965;52.368;9.712;2022-07-29T12:08:19;100982.81;;;23.16;43.11
55068;BME280;40965;52.368;9.712;2022-07-29T12:10:51;100981.94;;;23.31;42.89
55068;BME280;40965;52.368;9.712;2022-07-29T12:13:20;100975.19;;;23.40;42.72
55068;BME280;40965;52.368;9.712;2022-07-29T12:15:53;100973.59;;;23.52;42.19
55068;BME280;40965;52.368;9.712;2022-07-29T12:18:24;100974.03;;;23.60;42.22
55068;BME280;40965;52.368;9.712;2022-07-29T12:21:00;100972.09;;;23.78;41.76
55068;BME280;40965;52.368;9.712;2022-07-29T12:23:32;100964.88;;;23.94;41.62
55068;BME280;40965;52.368;9.712;2022-07-29T12:26:00;100962.44;;;24.20;41.19
55068;BME280;40965;52.368;9.712;2022-07-29T12:28:29;100951.16;;;24.44;40.53
55068;BME280;40965;52.368;9.712;2022-07-29T12:30:57;100952.03;;;24.59;40.25
55068;BME280;40965;52.368;9.712;2022-07-29T12:33:30;100957.50;;;24.72;39.97
55068;BME280;40965;52.368;9.712;2022-07-29T12:36:00;100958.59;;;24.97;40.02
55068;BME280;40965;52.368;9.712;2022-07-29T12:38:29;100958.78;;;25.21;39.42
55068;BME280;40965;52.368;9.712;2022-07-29T12:40:58;100951.28;;;25.40;38.87
55068;BME280;40965;52.368;9.712;2022-07-29T12:43:25;100958.16;;;25.45;38.55
55068;BME280;40965;52.368;9.712;2022-07-29T12:45:53;100949.50;;;25.54;38.65
55068;BME280;40965;52.368;9.712;2022-07-29T12:48:39;100949.34;;;25.83;37.53
55068;BME280;40965;52.368;9.712;2022-07-29T12:51:08;100947.66;;;25.95;37.55
55068;BME280;40965;52.368;9.712;2022-07-29T12:53:37;100948.59;;;25.93;37.90
55068;BME280;40965;52.368;9.712;2022-07-29T12:56:15;100941.09;;;25.99;37.29
55068;BME280;40965;52.368;9.712;2022-07-29T12:59:02;100946.88;;;25.92;37.64
55068;BME280;40965;52.368;9.712;2022-07-29T13:01:40;100945.50;;;25.87;37.79
55068;BME280;40965;52.368;9.712;2022-07-29T13:04:07;100938.94;;;25.78;37.37
55068;BME280;40965;52.368;9.712;2022-07-29T13:06:42;100940.09;;;25.74;37.38
55068;BME280;40965;52.368;9.712;2022-07-29T13:09:13;100939.78;;;25.79;37.67
55068;BME280;40965;52.368;9.712;2022-07-29T13:11:44;100926.38;;;25.91;37.37
55068;BME280;40965;52.368;9.712;2022-07-29T13:14:31;100933.78;;;26.01;36.98
55068;BME280;40965;52.368;9.712;2022-07-29T13:20:05;100931.13;;;25.75;37.01
55068;BME280;40965;52.368;9.712;2022-07-29T13:22:38;100926.28;;;25.67;37.40
55068;BME280;40965;52.368;9.712;2022-07-29T13:25:08;100925.72;;;25.62;37.24
55068;BME280;40965;52.368;9.712;2022-07-29T13:27:37;100929.91;;;25.66;36.80
55068;BME280;40965;52.368;9.712;2022-07-29T13:30:07;100921.56;;;25.71;36.73
55068;BME280;40965;52.368;9.712;2022-07-29T13:32:35;100921.34;;;25.74;36.05
55068;BME280;40965;52.368;9.712;2022-07-29T13:35:08;100916.63;;;25.78;35.88
55068;BME280;40965;52.368;9.712;2022-07-29T13:37:40;100909.44;;;25.91;35.43
55068;BME280;40965;52.368;9.712;2022-07-29T13:40:16;100900.75;;;26.00;34.71
55068;BME280;40965;52.368;9.712;2022-07-29T13:42:43;100905.91;;;26.16;34.76
55068;BME280;40965;52.368;9.712;2022-07-29T13:45:10;100902.25;;;26.43;34.26
55068;BME280;40965;52.368;9.712;2022-07-29T13:47:37;100899.69;;;26.66;33.89
55068;BME280;40965;52.368;9.712;2022-07-29T13:50:06;100905.47;;;27.10;33.26
55068;BME280;40965;52.368;9.712;2022-07-29T13:52:39;100894.28;;;28.32;32.33
55068;BME280;40965;52.368;9.712;2022-07-29T13:55:07;100888.22;;;30.64;28.67
55068;BME280;40965;52.368;9.712;2022-07-29T13:57:34;100883.38;;;32.79;25.88